createdAt,value
2022-10-18T00:00:44.706Z,102717.13
2022-10-18T00:03:11.115Z,102716.28
2022-10-18T00:05:37.521Z,102712.72
2022-10-18T00:08:03.929Z,102709.81
2022-10-18T00:10:30.472Z,102712.78
2022-10-18T00:12:56.808Z,102714.94
2022-10-18T00:15:23.246Z,102707.25
2022-10-18T00:17:49.584Z,102706.75
2022-10-18T00:20:15.952Z,102703.16
2022-10-18T00:22:42.399Z,102704.81
2022-10-18T00:25:09.976Z,102698.78
2022-10-18T00:27:36.999Z,102714.13
2022-10-18T00:30:04.600Z,102712.34
2022-10-18T00:32:31.415Z,102710.38
2022-10-18T00:34:58.005Z,102707.47
2022-10-18T00:37:24.379Z,102711.88
2022-10-18T00:39:53.782Z,102710.22
2022-10-18T00:42:22.505Z,102714.63
2022-10-18T00:44:48.771Z,102715.44
2022-10-18T00:47:17.952Z,102717.09
2022-10-18T00:49:48.391Z,102711.88
2022-10-18T00:52:37.398Z,102717.09
2022-10-18T00:55:05.235Z,102710.22
2022-10-18T00:57:32.601Z,102724.94
2022-10-18T00:59:59.049Z,102725.22
2022-10-18T01:02:26.099Z,102713.28
2022-10-18T01:04:52.457Z,102720.16
2022-10-18T01:07:58.396Z,102732.06
2022-10-18T01:10:31.996Z,102722.47
2022-10-18T01:13:26.095Z,102721.47
2022-10-18T01:16:14.372Z,102732.91
2022-10-18T01:18:57.684Z,102728.63
2022-10-18T01:21:55.474Z,102724.72
2022-10-18T01:25:14.074Z,102725.66
2022-10-18T01:27:54.949Z,102732.69
2022-10-18T01:30:38.390Z,102736.41
2022-10-18T01:33:13.071Z,102742.72
2022-10-18T01:35:47.224Z,102745.31
2022-10-18T01:38:17.954Z,102748.78
2022-10-18T01:40:47.712Z,102744.38
2022-10-18T01:43:16.484Z,102740.66
2022-10-18T01:45:43.037Z,102744.72
2022-10-18T01:48:11.712Z,102740.22
2022-10-18T01:50:38.140Z,102738.25
2022-10-18T01:53:04.619Z,102743.19
2022-10-18T01:55:43.068Z,102736.31
2022-10-18T01:58:21.395Z,102739.22
2022-10-18T02:00:55.401Z,102733.34
2022-10-18T02:03:23.860Z,102731.53
2022-10-18T02:06:28.954Z,102735.16
2022-10-18T02:09:11.144Z,102728.94
2022-10-18T02:11:39.420Z,102739.53
2022-10-18T02:14:12.999Z,102736.91
2022-10-18T02:16:41.884Z,102743.13
2022-10-18T02:21:53.596Z,102742.72
2022-10-18T02:24:21.163Z,102738.13
2022-10-18T02:26:47.569Z,102746.25
2022-10-18T02:29:13.934Z,102741.31
2022-10-18T02:31:49.684Z,102743.13
2022-10-18T02:34:30.500Z,102740.66
2022-10-18T02:36:59.539Z,102740.81
2022-10-18T02:39:37.577Z,102740.94
2022-10-18T02:42:08.845Z,102742.19
2022-10-18T02:44:35.961Z,102746.75
2022-10-18T02:47:03.143Z,102740.88
2022-10-18T02:49:29.504Z,102745.41
2022-10-18T02:51:55.942Z,102742.41
2022-10-18T02:54:23.181Z,102745.47
2022-10-18T02:56:50.397Z,102751.94
2022-10-18T02:59:17.026Z,102747.16
2022-10-18T03:01:43.576Z,102738.84
2022-10-18T03:04:10.082Z,102736.50
2022-10-18T03:06:36.456Z,102736.66
2022-10-18T03:09:04.674Z,102735.16
2022-10-18T03:11:31.326Z,102734.78
2022-10-18T03:13:58.021Z,102741.22
2022-10-18T03:16:24.511Z,102747.56
2022-10-18T03:18:50.863Z,102742.66
2022-10-18T03:21:17.213Z,102741.44
2022-10-18T03:23:43.657Z,102730.44
2022-10-18T03:26:10.131Z,102742.66
2022-10-18T03:28:36.504Z,102752.25
2022-10-18T03:31:04.389Z,102744.59
2022-10-18T03:33:31.422Z,102741.59
2022-10-18T03:35:57.827Z,102754.78
2022-10-18T03:38:24.335Z,102742.69
2022-10-18T03:40:50.971Z,102750.78
2022-10-18T03:43:17.467Z,102743.28
2022-10-18T03:45:43.860Z,102746.81
2022-10-18T03:48:10.283Z,102746.16
2022-10-18T03:50:36.629Z,102751.66
2022-10-18T03:53:03.277Z,102755.94
2022-10-18T03:55:29.618Z,102752.09
2022-10-18T03:57:56.183Z,102753.78
2022-10-18T04:00:22.781Z,102751.06
2022-10-18T04:02:52.031Z,102751.47
2022-10-18T04:05:27.264Z,102743.00
2022-10-18T04:07:54.810Z,102740.53
2022-10-18T04:10:21.189Z,102744.22
2022-10-18T04:12:47.562Z,102743.00
2022-10-18T04:15:13.920Z,102750.28
2022-10-18T04:17:40.348Z,102752.75
2022-10-18T04:20:07.292Z,102758.50
2022-10-18T04:22:33.666Z,102759.03
2022-10-18T04:25:00.087Z,102759.44
2022-10-18T04:27:26.495Z,102752.34
2022-10-18T04:29:53.023Z,102749.72
2022-10-18T04:32:19.357Z,102742.19
2022-10-18T04:34:45.720Z,102747.00
2022-10-18T04:37:12.163Z,102745.38
2022-10-18T04:39:38.504Z,102746.44
2022-10-18T04:42:05.019Z,102745.91
2022-10-18T04:44:31.347Z,102745.19
2022-10-18T04:46:57.738Z,102743.56
2022-10-18T04:49:24.325Z,102739.44
2022-10-18T04:51:50.694Z,102750.38
2022-10-18T04:54:17.169Z,102754.22
2022-10-18T04:56:43.523Z,102756.00
2022-10-18T04:59:09.880Z,102751.75
2022-10-18T05:01:36.294Z,102748.88
2022-10-18T05:04:02.668Z,102750.19
2022-10-18T05:06:29.023Z,102751.03
2022-10-18T05:08:55.454Z,102759.63
2022-10-18T05:11:21.842Z,102751.03
2022-10-18T05:13:50.187Z,102754.44
2022-10-18T05:16:17.846Z,102765.75
2022-10-18T05:18:44.273Z,102770.81
2022-10-18T05:21:12.315Z,102773.44
2022-10-18T05:23:38.861Z,102772.47
2022-10-18T05:26:07.197Z,102770.63
2022-10-18T05:28:39.797Z,102778.56
2022-10-18T05:31:09.632Z,102782.53
2022-10-18T05:33:36.229Z,102786.19
2022-10-18T05:36:03.321Z,102790.19
2022-10-18T05:38:32.685Z,102779.53
2022-10-18T05:40:59.695Z,102798.25
2022-10-18T05:43:29.299Z,102797.28
2022-10-18T05:45:55.767Z,102795.53
2022-10-18T05:48:22.332Z,102789.38
2022-10-18T05:50:48.651Z,102797.88
2022-10-18T05:53:35.335Z,102801.28
2022-10-18T05:56:02.364Z,102787.75
2022-10-18T05:58:28.857Z,102800.72
2022-10-18T06:00:58.981Z,102802.63
2022-10-18T06:03:25.323Z,102810.28
2022-10-18T06:05:51.685Z,102829.56
2022-10-18T06:08:18.042Z,102811.38
2022-10-18T06:10:44.423Z,102811.38
2022-10-18T06:13:10.889Z,102832.16
2022-10-18T06:15:37.268Z,102835.13
2022-10-18T06:18:03.859Z,102845.91
2022-10-18T06:20:30.283Z,102835.66
2022-10-18T06:22:56.913Z,102826.66
2022-10-18T06:25:23.352Z,102837.59
2022-10-18T06:27:49.775Z,102851.28
2022-10-18T06:30:16.118Z,102853.75
2022-10-18T06:32:42.454Z,102851.72
2022-10-18T06:35:09.299Z,102850.75
2022-10-18T06:37:36.909Z,102856.66
2022-10-18T06:40:04.276Z,102857.34
2022-10-18T06:42:31.912Z,102862.44
2022-10-18T06:44:58.611Z,102872.53
2022-10-18T06:47:24.975Z,102865.56
2022-10-18T06:49:51.325Z,102870.50
2022-10-18T06:52:18.252Z,102874.13
2022-10-18T06:54:45.536Z,102880.16
2022-10-18T06:57:11.913Z,102877.31
2022-10-18T06:59:38.501Z,102884.75
2022-10-18T07:02:04.891Z,102893.25
2022-10-18T07:04:31.339Z,102896.59
2022-10-18T07:06:57.751Z,102898.91
2022-10-18T07:09:24.142Z,102901.06
2022-10-18T07:11:50.548Z,102898.66
2022-10-18T07:14:16.874Z,102897.03
2022-10-18T07:16:43.262Z,102901.56
2022-10-18T07:19:09.739Z,102907.88
2022-10-18T07:21:36.388Z,102904.59
2022-10-18T07:24:02.912Z,102891.97
2022-10-18T07:26:31.602Z,102893.88
2022-10-18T07:29:01.830Z,102902.22
2022-10-18T07:31:29.694Z,102912.84
2022-10-18T07:33:56.643Z,102926.34
2022-10-18T07:36:24.430Z,102919.44
2022-10-18T07:38:52.152Z,102919.63
2022-10-18T07:41:19.212Z,102915.97
2022-10-18T07:43:48.496Z,102917.72
2022-10-18T07:46:15.907Z,102921.13
2022-10-18T07:48:42.302Z,102917.66
2022-10-18T07:51:09.647Z,102921.69
2022-10-18T07:53:36.365Z,102934.09
2022-10-18T07:56:08.601Z,102937.22
2022-10-18T07:58:35.908Z,102937.00
2022-10-18T08:01:07.144Z,102930.53
2022-10-18T08:03:34.407Z,102937.19
2022-10-18T08:06:01.436Z,102937.59
2022-10-18T08:08:28.788Z,102946.25
2022-10-18T08:10:55.253Z,102946.03
2022-10-18T08:13:22.210Z,102939.91
2022-10-18T08:15:48.553Z,102948.31
2022-10-18T08:18:15.072Z,102952.72
2022-10-18T08:20:45.149Z,102949.13
2022-10-18T08:23:12.029Z,102955.78
2022-10-18T08:25:38.590Z,102954.38
2022-10-18T08:28:05.265Z,102955.13
2022-10-18T08:30:31.646Z,102948.94
2022-10-18T08:32:58.006Z,102953.44
2022-10-18T08:35:24.403Z,102948.19
2022-10-18T08:37:51.334Z,102949.91
2022-10-18T08:40:17.886Z,102946.00
2022-10-18T08:43:21.592Z,102947.34
2022-10-18T08:45:50.835Z,102953.09
2022-10-18T08:48:22.336Z,102952.28
2022-10-18T08:50:50.843Z,102952.34
2022-10-18T08:53:27.611Z,102953.84
2022-10-18T08:56:15.008Z,102951.38
2022-10-18T08:58:44.349Z,102944.28
2022-10-18T09:01:32.457Z,102952.72
2022-10-18T09:04:24.504Z,102957.16
2022-10-18T09:07:22.434Z,102957.47
2022-10-18T09:10:05.092Z,102956.78
2022-10-18T09:12:50.148Z,102959.03
2022-10-18T09:15:35.290Z,102957.03
2022-10-18T09:18:33.530Z,102958.81
2022-10-18T09:21:07.080Z,102966.34
2022-10-18T09:23:57.145Z,102971.13
2022-10-18T09:26:24.671Z,102980.13
2022-10-18T09:29:01.387Z,102978.38
2022-10-18T09:31:52.404Z,102972.84
2022-10-18T09:34:24.405Z,102979.84
2022-10-18T09:36:52.428Z,102980.41
2022-10-18T09:39:22.887Z,102989.06
2022-10-18T09:41:59.942Z,102984.81
2022-10-18T09:44:34.479Z,102992.81
2022-10-18T09:47:16.535Z,102992.38
2022-10-18T09:49:47.846Z,102990.16
2022-10-18T09:52:19.554Z,102978.09
2022-10-18T09:54:57.147Z,102979.06
2022-10-18T09:57:31.386Z,102986.91
2022-10-18T09:59:58.892Z,102989.50
2022-10-18T10:02:25.279Z,102992.94
2022-10-18T10:04:54.062Z,102994.94
2022-10-18T10:07:24.821Z,102991.72
2022-10-18T10:09:59.019Z,102998.47
2022-10-18T10:12:27.781Z,102996.81
2022-10-18T10:15:29.539Z,103001.72
2022-10-18T10:18:18.986Z,103002.69
2022-10-18T10:20:48.518Z,103005.50
2022-10-18T10:23:20.986Z,103008.19
2022-10-18T10:25:56.475Z,103008.06
2022-10-18T10:28:30.093Z,103012.16
2022-10-18T10:31:24.158Z,103000.94
2022-10-18T10:34:05.794Z,103006.34
2022-10-18T10:36:34.105Z,103011.28
2022-10-18T10:39:13.493Z,103008.69
2022-10-18T10:41:41.306Z,103012.63
2022-10-18T10:44:19.888Z,103018.91
2022-10-18T10:46:49.372Z,103019.38
2022-10-18T10:49:39.150Z,103017.72
2022-10-18T10:52:09.403Z,103021.50
2022-10-18T10:54:53.850Z,103020.47
2022-10-18T10:57:24.601Z,103024.91
2022-10-18T10:59:53.747Z,103018.31
2022-10-18T11:02:21.846Z,103018.13
2022-10-18T11:04:53.129Z,103012.72
2022-10-18T11:07:22.445Z,103012.38
2022-10-18T11:10:02.126Z,103020.56
2022-10-18T11:12:33.659Z,103019.56
2022-10-18T11:15:11.992Z,103020.78
2022-10-18T11:18:10.232Z,103015.06
2022-10-18T11:20:58.192Z,103031.25
2022-10-18T11:23:32.779Z,103027.44
2022-10-18T11:26:19.080Z,103009.84
2022-10-18T11:29:06.268Z,103010.19
2022-10-18T11:31:40.273Z,103001.28
2022-10-18T11:34:39.567Z,103013.09
2022-10-18T11:37:28.172Z,103007.16
2022-10-18T11:40:05.592Z,103016.31
2022-10-18T11:42:55.571Z,103016.72
2022-10-18T11:45:39.103Z,103017.56
2022-10-18T11:48:31.316Z,103022.31
2022-10-18T11:51:15.208Z,103011.97
2022-10-18T11:53:58.130Z,103020.75
2022-10-18T11:56:30.400Z,103021.75
2022-10-18T11:59:25.785Z,103025.16
2022-10-18T12:02:12.464Z,103006.13
2022-10-18T12:04:53.086Z,103008.91
2022-10-18T12:07:28.968Z,103012.19
2022-10-18T12:10:00.552Z,102999.66
2022-10-18T12:12:32.050Z,103016.38
2022-10-18T12:15:06.847Z,103013.09
2022-10-18T12:17:49.656Z,103007.84
2022-10-18T12:20:23.448Z,103005.69
2022-10-18T12:22:59.840Z,103005.97
2022-10-18T12:25:29.368Z,103002.16
2022-10-18T12:28:17.434Z,102996.91
2022-10-18T12:31:08.023Z,102992.84
2022-10-18T12:33:45.868Z,103008.44
2022-10-18T12:36:51.153Z,102994.00
2022-10-18T12:39:43.850Z,102989.78
2022-10-18T12:42:28.695Z,102997.22
2022-10-18T12:45:05.487Z,103001.13
2022-10-18T12:47:33.185Z,103001.31
2022-10-18T12:50:03.283Z,103002.75
2022-10-18T12:52:34.496Z,102987.81
2022-10-18T12:55:13.915Z,102985.81
2022-10-18T12:57:52.983Z,102996.00
2022-10-18T13:00:31.628Z,102990.38
2022-10-18T13:03:18.435Z,102991.72
2022-10-18T13:05:56.213Z,102984.47
2022-10-18T13:08:30.104Z,102982.31
2022-10-18T13:11:11.657Z,102982.66
2022-10-18T13:14:19.430Z,102981.31
2022-10-18T13:17:20.199Z,102968.91
2022-10-18T13:20:27.061Z,102969.88
2022-10-18T13:23:13.489Z,102962.88
2022-10-18T13:26:04.909Z,102955.69
2022-10-18T13:28:55.820Z,102964.25
2022-10-18T13:31:30.229Z,102960.59
2022-10-18T13:34:33.099Z,102959.44
2022-10-18T13:37:18.555Z,102977.84
2022-10-18T13:39:45.047Z,102974.00
2022-10-18T13:42:14.369Z,102977.47
2022-10-18T13:44:43.521Z,102978.47
2022-10-18T13:47:16.242Z,102975.38
2022-10-18T13:49:59.586Z,102980.34
2022-10-18T13:53:00.071Z,102981.22
2022-10-18T13:55:55.012Z,102976.22
2022-10-18T13:58:34.631Z,102983.81
2022-10-18T14:01:30.414Z,102984.84
2022-10-18T14:04:36.655Z,102983.78
2022-10-18T14:07:05.926Z,102987.44
2022-10-18T14:09:47.856Z,102989.00
2022-10-18T14:12:48.102Z,102984.09
2022-10-18T14:15:34.189Z,102982.09
2022-10-18T14:19:00.918Z,102991.63
2022-10-18T14:21:35.387Z,102999.53
2022-10-18T14:24:02.893Z,102997.41
2022-10-18T14:26:47.450Z,102996.13
2022-10-18T14:29:20.217Z,103000.53
2022-10-18T14:31:53.432Z,103006.13
2022-10-18T14:34:20.616Z,102995.81
2022-10-18T14:36:56.527Z,102997.28
2022-10-18T14:39:28.982Z,103001.59
2022-10-18T14:41:57.148Z,103010.09
2022-10-18T14:44:30.199Z,103002.38
2022-10-18T14:47:04.837Z,103001.59
2022-10-18T14:49:31.683Z,103016.25
2022-10-18T14:52:00.572Z,103006.72
2022-10-18T14:54:37.777Z,103000.22
2022-10-18T14:57:06.924Z,103013.66
2022-10-18T14:59:51.768Z,103012.00
2022-10-18T15:02:26.281Z,103007.91
2022-10-18T15:04:59.670Z,103015.59
2022-10-18T15:07:29.085Z,103016.38
2022-10-18T15:09:58.019Z,103013.13
2022-10-18T15:12:25.563Z,103017.22
2022-10-18T15:14:53.968Z,103016.22
2022-10-18T15:17:26.361Z,103005.88
2022-10-18T15:20:19.226Z,103018.00
2022-10-18T15:22:48.649Z,103021.25
2022-10-18T15:25:15.328Z,103020.09
2022-10-18T15:27:45.245Z,103010.75
2022-10-18T15:30:19.428Z,103007.28
2022-10-18T15:32:50.713Z,103010.69
2022-10-18T15:35:25.725Z,103009.53
2022-10-18T15:37:54.441Z,103014.72
2022-10-18T15:40:23.713Z,103013.03
2022-10-18T15:42:51.830Z,103019.28
2022-10-18T15:45:24.120Z,103017.44
2022-10-18T15:48:05.772Z,103019.69
2022-10-18T15:51:02.017Z,103019.31
2022-10-18T15:53:33.674Z,103014.34
2022-10-18T15:56:06.583Z,103021.81
2022-10-18T15:58:48.926Z,103028.94
2022-10-18T16:01:26.999Z,103025.16
2022-10-18T16:06:21.075Z,103025.88
2022-10-18T16:08:50.151Z,103031.03
2022-10-18T16:11:19.768Z,103018.56
2022-10-18T16:13:47.202Z,103024.69
2022-10-18T16:16:25.423Z,103024.19
2022-10-18T16:18:52.954Z,103031.81
2022-10-18T16:21:20.892Z,103036.66
2022-10-18T16:23:48.906Z,103032.97
2022-10-18T16:26:16.682Z,103030.94
2022-10-18T16:28:43.770Z,103032.53
2022-10-18T16:33:42.697Z,103032.63
2022-10-18T16:36:16.512Z,103037.75
2022-10-18T16:38:44.268Z,103038.63
2022-10-18T16:41:11.654Z,103042.09
2022-10-18T16:43:39.485Z,103044.88
2022-10-18T16:46:07.592Z,103042.31
2022-10-18T16:51:46.975Z,103050.47
2022-10-18T16:54:13.446Z,103055.19
2022-10-18T16:56:40.191Z,103058.47
2022-10-18T16:59:06.653Z,103066.19
2022-10-18T17:01:33.337Z,103068.38
2022-10-18T17:03:59.707Z,103071.53
2022-10-18T17:06:29.521Z,103071.41
2022-10-18T17:08:56.974Z,103074.69
2022-10-18T17:11:26.563Z,103081.41
2022-10-18T17:13:53.375Z,103081.25
2022-10-18T17:19:02.717Z,103082.03
2022-10-18T17:21:30.112Z,103076.28
2022-10-18T17:24:00.436Z,103081.22
2022-10-18T17:26:28.803Z,103091.88
2022-10-18T17:28:59.755Z,103097.25
2022-10-18T17:31:26.739Z,103101.63
2022-10-18T17:33:56.019Z,103100.75
2022-10-18T17:36:22.482Z,103097.03
2022-10-18T17:38:52.673Z,103094.41
2022-10-18T17:41:19.270Z,103091.75
2022-10-18T17:43:45.623Z,103095.94
2022-10-18T17:46:14.155Z,103097.44
2022-10-18T17:48:41.895Z,103095.47
2022-10-18T17:51:10.208Z,103091.75
2022-10-18T17:53:36.823Z,103099.63
2022-10-18T17:56:04.686Z,103094.94
2022-10-18T17:58:31.943Z,103096.97
2022-10-18T18:01:07.676Z,103105.00
2022-10-18T18:03:34.069Z,103103.03
2022-10-18T18:06:00.443Z,103105.56
2022-10-18T18:08:26.852Z,103115.66
2022-10-18T18:10:56.299Z,103113.41
2022-10-18T18:13:23.726Z,103120.84
2022-10-18T18:15:50.063Z,103119.44
2022-10-18T18:18:16.676Z,103117.94
2022-10-18T18:20:53.259Z,103120.91
2022-10-18T18:23:21.627Z,103121.50
2022-10-18T18:25:56.815Z,103124.84
2022-10-18T18:28:23.300Z,103115.88
2022-10-18T18:30:49.661Z,103123.56
2022-10-18T18:33:16.220Z,103127.38
2022-10-18T18:35:42.789Z,103128.31
2022-10-18T18:38:09.207Z,103117.47
2022-10-18T18:40:35.872Z,103119.22
2022-10-18T18:43:12.383Z,103120.06
2022-10-18T18:45:52.320Z,103125.38
2022-10-18T18:48:19.927Z,103130.81
2022-10-18T18:50:50.447Z,103136.22
2022-10-18T18:53:17.007Z,103135.66
2022-10-18T18:55:43.458Z,103134.91
2022-10-18T18:58:10.633Z,103144.84
2022-10-18T19:00:41.864Z,103146.97
2022-10-18T19:03:10.870Z,103140.25
2022-10-18T19:05:37.467Z,103138.72
2022-10-18T19:08:05.549Z,103138.25
2022-10-18T19:10:32.374Z,103145.56
2022-10-18T19:12:58.966Z,103145.06
2022-10-18T19:15:25.560Z,103139.16
2022-10-18T19:17:51.942Z,103137.53
2022-10-18T19:20:18.525Z,103146.47
2022-10-18T19:22:45.434Z,103146.13
2022-10-18T19:25:11.907Z,103141.16
2022-10-18T19:27:38.312Z,103153.44
2022-10-18T19:30:07.731Z,103147.03
2022-10-18T19:32:34.283Z,103141.59
2022-10-18T19:35:00.831Z,103147.00
2022-10-18T19:37:27.392Z,103144.97
2022-10-18T19:39:53.930Z,103146.28
2022-10-18T19:42:26.109Z,103150.97
2022-10-18T19:44:52.820Z,103141.28
2022-10-18T19:47:20.452Z,103144.31
2022-10-18T19:49:47.935Z,103146.53
2022-10-18T19:52:14.350Z,103145.31
2022-10-18T19:54:40.767Z,103147.50
2022-10-18T19:57:07.572Z,103146.19
2022-10-18T19:59:36.210Z,103139.69
2022-10-18T20:02:04.608Z,103146.72
2022-10-18T20:04:34.302Z,103137.63
2022-10-18T20:07:02.607Z,103138.06
2022-10-18T20:09:29.408Z,103139.25
2022-10-18T20:11:55.791Z,103141.31
2022-10-18T20:14:22.433Z,103153.03
2022-10-18T20:16:48.804Z,103154.06
2022-10-18T20:19:15.193Z,103155.94
2022-10-18T20:21:41.583Z,103157.81
2022-10-18T20:24:09.477Z,103150.59
2022-10-18T20:26:36.737Z,103153.50
2022-10-18T20:29:04.291Z,103151.22
2022-10-18T20:31:33.944Z,103156.09
2022-10-18T20:34:02.448Z,103153.00
2022-10-18T20:36:30.357Z,103161.19
2022-10-18T20:38:57.745Z,103158.19
2022-10-18T20:41:32.813Z,103155.09
2022-10-18T20:44:06.859Z,103151.03
2022-10-18T20:46:36.220Z,103147.03
2022-10-18T20:49:03.915Z,103156.75
2022-10-18T20:51:30.590Z,103152.91
2022-10-18T20:53:57.070Z,103152.41
2022-10-18T20:56:26.533Z,103144.31
2022-10-18T20:58:56.257Z,103143.38
2022-10-18T21:01:25.803Z,103144.69
2022-10-18T21:03:53.869Z,103142.84
2022-10-18T21:06:42.292Z,103140.84
2022-10-18T21:09:19.490Z,103139.38
2022-10-18T21:11:49.267Z,103140.34
2022-10-18T21:14:18.566Z,103137.75
2022-10-18T21:16:46.225Z,103140.44
2022-10-18T21:19:14.178Z,103137.84
2022-10-18T21:21:42.380Z,103132.16
2022-10-18T21:24:08.779Z,103132.53
2022-10-18T21:26:36.360Z,103126.72
2022-10-18T21:29:04.437Z,103133.66
2022-10-18T21:31:34.633Z,103142.22
2022-10-18T21:34:04.442Z,103136.97
2022-10-18T21:36:32.881Z,103140.91
2022-10-18T21:38:59.429Z,103142.69
2022-10-18T21:41:26.081Z,103139.44
2022-10-18T21:43:54.087Z,103143.06
2022-10-18T21:46:22.569Z,103141.69
2022-10-18T21:48:51.759Z,103140.34
2022-10-18T21:51:21.115Z,103140.63
2022-10-18T21:53:49.532Z,103154.53
2022-10-18T21:56:18.850Z,103150.41
2022-10-18T21:58:46.161Z,103150.91
2022-10-18T22:01:14.592Z,103146.31
2022-10-18T22:03:42.091Z,103156.19
2022-10-18T22:06:14.116Z,103141.97
2022-10-18T22:08:42.967Z,103132.66
2022-10-18T22:11:09.774Z,103131.31
2022-10-18T22:13:36.297Z,103133.88
2022-10-18T22:16:04.292Z,103134.72
2022-10-18T22:18:32.024Z,103129.44
2022-10-18T22:21:05.098Z,103130.28
2022-10-18T22:23:40.125Z,103134.44
2022-10-18T22:26:09.276Z,103126.69
2022-10-18T22:28:36.158Z,103123.16
2022-10-18T22:31:02.690Z,103123.16
2022-10-18T22:33:29.512Z,103124.00
2022-10-18T22:35:55.993Z,103122.16
2022-10-18T22:38:22.616Z,103124.00
2022-10-18T22:40:49.468Z,103120.41
2022-10-18T22:43:15.922Z,103116.38
2022-10-18T22:45:42.350Z,103130.28
2022-10-18T22:48:08.899Z,103126.34
2022-10-18T22:50:35.340Z,103126.53
2022-10-18T22:53:01.703Z,103115.47
2022-10-18T22:55:28.139Z,103124.94
2022-10-18T22:57:56.256Z,103120.81
2022-10-18T23:00:22.689Z,103121.09
2022-10-18T23:02:49.859Z,103118.78
2022-10-18T23:05:16.440Z,103119.88
2022-10-18T23:07:47.404Z,103120.09
2022-10-18T23:10:13.837Z,103121.94
2022-10-18T23:12:40.173Z,103120.47
2022-10-18T23:15:07.164Z,103117.88
2022-10-18T23:17:33.649Z,103116.31
2022-10-18T23:20:00.180Z,103112.91
2022-10-18T23:22:26.547Z,103113.72
2022-10-18T23:24:52.883Z,103108.84
2022-10-18T23:27:19.372Z,103099.66
2022-10-18T23:29:45.786Z,103115.22
2022-10-18T23:32:12.159Z,103114.50
2022-10-18T23:34:38.610Z,103118.06
2022-10-18T23:37:05.040Z,103118.25
2022-10-18T23:39:31.377Z,103125.16
2022-10-18T23:41:57.752Z,103119.25
2022-10-18T23:44:24.078Z,103122.84
2022-10-18T23:46:50.510Z,103125.69
2022-10-18T23:49:16.910Z,103129.28
2022-10-18T23:51:43.267Z,103133.78
2022-10-18T23:54:09.590Z,103130.47
2022-10-18T23:56:36.027Z,103135.81
2022-10-18T23:59:02.582Z,103130.09
